Time;durP1;ratioP1;P1;durP2;ratioP2;P2;SDS_P1;SDS_P2;PMS_P1;PMS_P2;Temp;Humidity;BMP_temperature;BMP_pressure;BME280_temperature;BME280_humidity;BME280_pressure;Samples;Min_cycle;Max_cycle;Signal;HPM_P1;HPM_P2
2024/02/08 10:56:40;;;;;;;3.13;2.83;;;;;;;6.27;100.00;97334.75;5171839;27;20556;-87
2024/02/08 10:59:10;;;;;;;4.03;2.90;;;;;;;7.01;100.00;97344.38;5153722;27;38828;-88
2024/02/08 11:02:00;;;;;;;2.97;2.67;;;;;;;7.41;100.00;97345.78;5153303;27;41002;-88
2024/02/08 11:04:28;;;;;;;3.10;1.90;;;;;;;7.87;100.00;97335.28;5135586;27;42571;-88
2024/02/08 11:07:08;;;;;;;4.37;1.93;;;;;;;7.84;100.00;97263.50;5136133;27;42889;-89
2024/02/08 11:09:36;;;;;;;2.20;2.00;;;;;;;8.33;100.00;97294.00;5135580;27;40966;-88
2024/02/08 11:12:09;;;;;;;2.83;1.90;;;;;;;8.72;100.00;97317.25;5136306;27;40907;-88
2024/02/08 11:14:42;;;;;;;1.80;1.70;;;;;;;8.89;100.00;97327.31;5152802;27;43106;-88
2024/02/08 11:17:20;;;;;;;2.13;1.73;;;;;;;9.00;100.00;97311.44;5135780;27;42368;-88
2024/02/08 11:19:56;;;;;;;1.50;1.40;;;;;;;8.97;100.00;97273.88;5136484;27;38857;-88
2024/02/08 11:22:34;;;;;;;2.03;1.63;;;;;;;9.35;100.00;97311.19;5153232;27;40989;-89
2024/02/08 11:25:18;;;;;;;1.67;1.57;;;;;;;9.39;100.00;97295.94;5135975;27;42864;-89
2024/02/08 11:27:55;;;;;;;2.13;1.73;;;;;;;9.42;100.00;97274.53;5135806;27;43638;-88
2024/02/08 11:30:33;;;;;;;2.10;1.90;;;;;;;9.63;100.00;97285.97;5136136;27;39874;-88
2024/02/08 11:33:03;;;;;;;2.00;1.80;;;;;;;9.68;100.00;97286.41;5152628;27;43174;-88
2024/02/08 11:38:16;;;;;;;1.70;1.60;;;;;;;9.82;100.00;97282.63;5134699;27;41659;-88
2024/02/08 11:40:45;;;;;;;1.50;1.37;;;;;;;9.87;100.00;97274.31;5135867;27;40234;-87
2024/02/08 11:43:24;;;;;;;1.63;1.43;;;;;;;9.87;100.00;97269.84;5152412;27;41431;-88
2024/02/08 11:45:53;;;;;;;1.90;1.70;;;;;;;9.95;100.00;97277.13;5152841;27;42934;-88
2024/02/08 11:48:26;;;;;;;1.60;1.50;;;;;;;10.01;100.00;97272.13;5135408;27;41082;-88
2024/02/08 11:50:58;;;;;;;1.80;1.60;;;;;;;10.05;100.00;97259.50;5135539;27;40464;-88
2024/02/08 11:53:33;;;;;;;1.50;1.40;;;;;;;10.17;100.00;97255.78;5152562;27;44020;-89
2024/02/08 11:56:03;;;;;;;1.30;1.20;;;;;;;10.26;100.00;97260.31;5152914;27;41805;-88
2024/02/08 11:58:40;;;;;;;1.40;1.30;;;;;;;10.36;100.00;97244.50;5135425;27;43645;-88
2024/02/08 12:01:09;;;;;;;1.10;1.00;;;;;;;10.25;100.00;97221.63;5135247;27;40131;-88
2024/02/08 12:06:22;;;;;;;1.60;1.50;;;;;;;10.53;100.00;97224.47;5128507;27;42178;-88
2024/02/08 12:08:59;;;;;;;1.40;1.30;;;;;;;10.49;100.00;97212.50;5138331;27;43401;-89
2024/02/08 12:11:30;;;;;;;1.40;1.23;;;;;;;10.47;100.00;97198.56;5121996;27;38849;-88
2024/02/08 12:14:07;;;;;;;1.30;1.20;;;;;;;10.69;100.00;97216.88;5138631;27;42187;-89
2024/02/08 12:16:38;;;;;;;0.90;0.90;;;;;;;10.74;100.00;97210.19;5121046;27;43590;-89
2024/02/08 12:19:15;;;;;;;1.10;1.00;;;;;;;10.87;100.00;97204.63;5138725;27;41371;-89
2024/02/08 12:21:43;;;;;;;0.80;0.80;;;;;;;10.95;100.00;97183.59;5138556;27;39001;-88
2024/02/08 12:24:15;;;;;;;1.27;1.20;;;;;;;11.07;100.00;97187.78;5121291;27;42789;-88
2024/02/08 12:26:53;;;;;;;1.30;1.20;;;;;;;11.03;100.00;97159.03;5121526;27;41900;-88
2024/02/08 12:29:29;;;;;;;2.37;1.37;;;;;;;11.10;100.00;97160.16;5121691;27;41426;-88
2024/02/08 12:32:27;;;;;;;1.67;1.57;;;;;;;11.33;100.00;97179.25;5120952;27;40862;-89
2024/02/08 12:34:56;;;;;;;1.30;1.20;;;;;;;11.42;100.00;97178.38;5120578;27;41902;-88
2024/02/08 12:37:29;;;;;;;1.60;1.50;;;;;;;11.48;100.00;97170.72;5110380;28;41701;-88
2024/02/08 12:40:11;;;;;;;1.73;1.63;;;;;;;11.40;100.00;97151.19;5097261;28;42641;-89
2024/02/08 12:42:42;;;;;;;2.40;1.90;;;;;;;11.47;100.00;97147.00;5096886;28;39109;-88
2024/02/08 12:45:12;;;;;;;1.93;1.77;;;;;;;11.46;100.00;97143.53;5097366;28;40592;-88
2024/02/08 12:47:40;;;;;;;1.83;1.60;;;;;;;11.49;100.00;97150.34;5096426;28;43143;-89
2024/02/08 12:50:10;;;;;;;1.57;1.37;;;;;;;11.52;100.00;97150.88;5097234;28;42528;-89
2024/02/08 12:52:41;;;;;;;1.63;1.50;;;;;;;11.46;100.00;97145.34;5113745;28;39186;-89
2024/02/08 12:55:10;;;;;;;2.50;2.30;;;;;;;11.21;100.00;97103.53;5114123;28;40911;-88
2024/02/08 12:57:40;;;;;;;2.20;1.90;;;;;;;11.39;100.00;97128.31;5110826;28;41735;-88
2024/02/08 13:00:12;;;;;;;3.60;2.50;;;;;;;11.43;100.00;97133.19;5097003;28;41781;-88
2024/02/08 13:02:55;;;;;;;3.23;2.90;;;;;;;11.42;100.00;97123.56;5113597;28;39139;-88
2024/02/08 13:05:45;;;;;;;4.67;2.77;;;;;;;11.41;100.00;97107.81;5095945;28;40960;-88
2024/02/08 13:08:24;;;;;;;3.60;2.60;;;;;;;11.59;100.00;97127.31;5076793;28;41477;-89
2024/02/08 13:10:59;;;;;;;2.97;2.77;;;;;;;11.52;100.00;97091.72;5113675;28;41845;-88
2024/02/08 13:13:48;;;;;;;3.43;2.57;;;;;;;11.69;100.00;97119.31;5096674;28;40288;-88
2024/02/08 13:16:23;;;;;;;2.20;2.00;;;;;;;11.57;100.00;97086.84;5113341;28;41018;-88
2024/02/08 13:19:03;;;;;;;2.90;2.47;;;;;;;11.56;100.00;97087.81;5095376;28;41976;-88
2024/02/08 13:21:34;;;;;;;2.47;2.20;;;;;;;11.75;100.00;97116.06;5095851;28;42518;-88
2024/02/08 13:24:07;;;;;;;3.13;1.90;;;;;;;11.65;100.00;97084.28;5096482;28;40254;-88
2024/02/08 13:26:43;;;;;;;2.10;1.87;;;;;;;11.79;100.00;97101.56;5096095;28;40956;-89
2024/02/08 13:29:11;;;;;;;2.23;1.77;;;;;;;11.78;100.00;97092.78;5096296;28;42974;-89
2024/02/08 13:31:39;;;;;;;1.90;1.63;;;;;;;11.86;100.00;97098.22;5095945;28;43201;-88
2024/02/08 13:34:09;;;;;;;1.40;1.00;;;;;;;11.92;100.00;97098.59;5095607;28;39119;-88
2024/02/08 13:36:36;;;;;;;1.20;1.10;;;;;;;11.90;100.00;97079.31;5113089;28;40920;-88
2024/02/08 13:39:04;;;;;;;1.30;1.00;;;;;;;12.09;100.00;97095.16;5095788;28;44440;-89
2024/02/08 13:41:34;;;;;;;0.67;0.67;;;;;;;12.21;100.00;97072.75;5095991;28;42357;-87
2024/02/08 13:44:02;;;;;;;1.10;0.67;;;;;;;12.27;100.00;97095.16;5096476;28;40121;-88
2024/02/08 13:46:50;;;;;;;1.80;0.63;;;;;;;12.09;100.00;97058.00;5095687;28;41061;-89
2024/02/08 13:49:28;;;;;;;0.60;0.50;;;;;;;12.20;100.00;97065.75;5112788;28;42105;-89
2024/02/08 13:51:58;;;;;;;0.47;0.47;;;;;;;12.31;100.00;97083.28;5095470;28;42591;-91
2024/02/08 13:54:27;;;;;;;1.07;0.60;;;;;;;12.33;100.00;97070.69;5078941;28;38998;-89
2024/02/08 13:56:58;;;;;;;0.50;0.50;;;;;;;12.30;100.00;97063.88;5095771;28;40605;-91
2024/02/08 13:59:27;;;;;;;0.50;0.50;;;;;;;12.38;100.00;97074.56;5095596;28;41777;-87
2024/02/08 14:01:54;;;;;;;0.80;0.47;;;;;;;12.39;100.00;97075.41;5095330;28;42349;-88
2024/02/08 14:04:23;;;;;;;0.80;0.50;;;;;;;12.37;100.00;97056.97;5095472;28;40054;-90
2024/02/08 14:06:56;;;;;;;0.40;0.40;;;;;;;12.52;100.00;97074.03;5095213;28;40763;-89
